Time;durP1;ratioP1;P1;durP2;ratioP2;P2;SDS_P1;SDS_P2;PMS_P1;PMS_P2;Temp;Humidity;BMP_temperature;BMP_pressure;BME280_temperature;BME280_humidity;BME280_pressure;Samples;Min_cycle;Max_cycle;Signal;HPM_P1;HPM_P2
2022/02/13 00:00:56;;;;;;;32.33;13.60;;;-1.50;99.90;;;;;;4423985;32;20196;-68
2022/02/13 00:03:23;;;;;;;35.37;13.57;;;-1.50;99.90;;;;;;4425178;32;20193;-68
2022/02/13 00:05:51;;;;;;;30.50;13.80;;;-1.50;99.90;;;;;;4439891;32;20235;-68
2022/02/13 00:08:18;;;;;;;36.40;14.53;;;-1.50;99.90;;;;;;4439294;32;20228;-67
2022/02/13 00:11:05;;;;;;;34.33;13.93;;;-1.50;99.90;;;;;;4439979;32;20186;-68
2022/02/13 00:13:31;;;;;;;34.00;13.80;;;-1.50;99.90;;;;;;4439283;32;20509;-68
2022/02/13 00:15:58;;;;;;;37.13;14.50;;;-1.50;99.90;;;;;;4441817;32;20350;-68
2022/02/13 00:18:25;;;;;;;33.53;13.97;;;-1.60;99.90;;;;;;4442509;32;20457;-69
2022/02/13 00:20:52;;;;;;;34.47;13.87;;;-1.60;99.90;;;;;;4439443;32;20175;-69
2022/02/13 00:23:19;;;;;;;37.60;14.37;;;-1.60;99.90;;;;;;4440590;32;20200;-69
2022/02/13 00:25:46;;;;;;;31.00;13.87;;;-1.60;99.90;;;;;;4442471;32;20191;-68
2022/02/13 00:28:13;;;;;;;35.23;14.37;;;-1.60;99.90;;;;;;4442193;32;20158;-68
2022/02/13 00:30:46;;;;;;;35.27;14.57;;;-1.60;99.90;;;;;;4438768;32;20760;-68
2022/02/13 00:33:14;;;;;;;36.27;14.53;;;-1.60;99.90;;;;;;4440201;32;20171;-68
2022/02/13 00:35:42;;;;;;;38.07;14.50;;;-1.60;99.90;;;;;;4440515;32;20213;-68
2022/02/13 00:38:09;;;;;;;35.33;14.90;;;-1.70;99.90;;;;;;4440478;32;20426;-68
2022/02/13 00:40:36;;;;;;;33.53;14.17;;;-1.70;99.90;;;;;;4438768;32;20214;-68
2022/02/13 00:43:04;;;;;;;36.80;14.60;;;-1.70;99.90;;;;;;4440709;32;20170;-69
2022/02/13 00:45:31;;;;;;;38.67;14.70;;;-1.70;99.90;;;;;;4440420;32;20540;-68
2022/02/13 00:47:58;;;;;;;34.17;14.77;;;-1.70;99.90;;;;;;4440877;32;20185;-67
2022/02/13 00:50:25;;;;;;;35.57;14.33;;;-1.70;99.90;;;;;;4442071;32;20154;-67
2022/02/13 00:52:52;;;;;;;31.20;13.67;;;-1.80;99.90;;;;;;4438723;32;20233;-67
2022/02/13 00:55:20;;;;;;;36.23;14.73;;;-1.80;99.90;;;;;;4439044;32;20163;-67
2022/02/13 00:57:47;;;;;;;35.37;15.13;;;-1.80;99.90;;;;;;4440793;32;20289;-67
2022/02/13 01:00:14;;;;;;;37.10;14.80;;;-1.80;99.90;;;;;;4440316;32;20258;-68
2022/02/13 01:02:41;;;;;;;36.63;14.97;;;-1.80;99.90;;;;;;4438443;32;20213;-68
2022/02/13 01:05:09;;;;;;;37.00;14.63;;;-1.80;99.90;;;;;;4440224;32;20154;-67
2022/02/13 01:07:35;;;;;;;34.83;14.33;;;-1.80;99.90;;;;;;4440581;32;20165;-68
2022/02/13 01:10:04;;;;;;;37.37;14.80;;;-1.80;99.90;;;;;;4440591;32;20218;-67
2022/02/13 01:12:31;;;;;;;36.27;15.37;;;-1.80;99.90;;;;;;4434043;32;20197;-68
2022/02/13 01:14:58;;;;;;;35.03;14.50;;;-1.80;99.90;;;;;;4423117;32;20216;-69
2022/02/13 01:17:26;;;;;;;35.10;14.73;;;-1.90;99.90;;;;;;4422490;32;20181;-68
2022/02/13 01:19:53;;;;;;;38.40;15.20;;;-1.90;99.90;;;;;;4425849;32;20170;-68
2022/02/13 01:22:20;;;;;;;42.13;15.47;;;-1.90;99.90;;;;;;4424616;32;20242;-68
2022/02/13 01:24:47;;;;;;;33.67;14.27;;;-2.00;99.90;;;;;;4424177;32;20216;-68
2022/02/13 01:27:14;;;;;;;36.03;14.27;;;-1.90;99.90;;;;;;4424849;32;20217;-68
2022/02/13 01:29:42;;;;;;;35.63;14.30;;;-2.00;99.90;;;;;;4424468;32;20242;-68
2022/02/13 01:32:09;;;;;;;32.93;14.30;;;-2.00;99.90;;;;;;4424237;32;20195;-68
2022/02/13 01:34:36;;;;;;;37.63;14.53;;;-2.00;99.90;;;;;;4424187;32;20234;-67
2022/02/13 01:37:03;;;;;;;32.00;14.03;;;-2.00;99.90;;;;;;4424904;32;20238;-68
2022/02/13 01:39:32;;;;;;;36.70;14.60;;;-2.00;99.90;;;;;;4422655;32;20167;-67
2022/02/13 01:41:59;;;;;;;37.23;14.60;;;-2.00;99.90;;;;;;4422885;32;20214;-67
2022/02/13 01:44:28;;;;;;;40.87;14.87;;;-2.00;99.90;;;;;;4423856;32;20379;-68
2022/02/13 01:46:56;;;;;;;36.60;14.00;;;-2.00;99.90;;;;;;4424641;32;20202;-67
2022/02/13 01:49:23;;;;;;;34.93;14.53;;;-2.00;99.90;;;;;;4422180;32;20242;-67
2022/02/13 01:51:50;;;;;;;38.07;15.30;;;-2.00;99.90;;;;;;4424203;32;20237;-68
2022/02/13 01:54:17;;;;;;;34.03;13.40;;;-2.00;99.90;;;;;;4424543;32;20591;-68
2022/02/13 01:56:45;;;;;;;32.83;13.70;;;-2.00;99.90;;;;;;4422643;32;20167;-68
2022/02/13 01:59:12;;;;;;;34.73;13.50;;;-2.00;99.90;;;;;;4423062;32;20175;-68
2022/02/13 02:01:41;;;;;;;34.70;13.43;;;-2.00;99.90;;;;;;4424082;32;20217;-68
2022/02/13 02:04:08;;;;;;;31.80;13.23;;;-2.00;99.90;;;;;;4422292;32;20194;-67
2022/02/13 02:06:36;;;;;;;38.63;13.93;;;-2.00;99.90;;;;;;4424678;32;20142;-68
2022/02/13 02:09:05;;;;;;;35.33;13.97;;;-2.00;99.90;;;;;;4424038;32;20205;-69
2022/02/13 02:11:33;;;;;;;30.97;13.77;;;-2.00;99.90;;;;;;4424355;32;20248;-68
2022/02/13 02:14:00;;;;;;;36.03;14.20;;;-2.10;99.90;;;;;;4424371;32;20293;-69
2022/02/13 02:16:27;;;;;;;33.80;13.47;;;-2.10;99.90;;;;;;4422575;32;20253;-69
2022/02/13 02:18:54;;;;;;;35.90;14.00;;;-2.10;99.90;;;;;;4422307;32;20247;-69
2022/02/13 02:21:21;;;;;;;37.63;14.27;;;-2.10;99.90;;;;;;4422356;32;20166;-69
2022/02/13 02:23:48;;;;;;;35.97;14.13;;;-2.20;99.90;;;;;;4422540;32;20175;-69
2022/02/13 02:26:17;;;;;;;38.87;13.73;;;-2.20;99.90;;;;;;4422327;32;20253;-69
2022/02/13 02:28:45;;;;;;;33.20;13.97;;;-2.10;99.90;;;;;;4422661;32;20194;-69
2022/02/13 02:31:12;;;;;;;32.70;13.70;;;-2.20;99.90;;;;;;4423947;32;20168;-69
2022/02/13 02:33:40;;;;;;;29.90;12.57;;;-2.20;99.90;;;;;;4423007;32;20581;-69
2022/02/13 02:36:15;;;;;;;31.37;13.20;;;-2.20;99.90;;;;;;4424390;32;20265;-69
2022/02/13 02:38:41;;;;;;;32.40;13.07;;;-2.20;99.90;;;;;;4422556;32;20209;-69
2022/02/13 02:41:08;;;;;;;32.80;13.00;;;-2.20;99.90;;;;;;4422785;32;20185;-69
2022/02/13 02:43:35;;;;;;;31.13;12.93;;;-2.20;99.90;;;;;;4423367;32;20413;-69
2022/02/13 02:46:03;;;;;;;28.97;12.53;;;-2.20;99.90;;;;;;4424049;32;20443;-68
2022/02/13 02:48:30;;;;;;;26.57;12.17;;;-2.20;99.90;;;;;;4422353;32;20194;-69
2022/02/13 02:50:57;;;;;;;31.03;12.80;;;-2.20;99.90;;;;;;4423599;32;20270;-69
2022/02/13 02:53:24;;;;;;;27.33;12.20;;;-2.20;99.90;;;;;;4421872;32;20213;-69
2022/02/13 02:55:53;;;;;;;28.13;12.27;;;-2.20;99.90;;;;;;4423909;32;20485;-69
2022/02/13 02:58:21;;;;;;;28.17;12.60;;;-2.20;99.90;;;;;;4423816;32;20166;-69
2022/02/13 03:00:50;;;;;;;28.57;11.73;;;-2.30;99.90;;;;;;4421887;32;20258;-69
2022/02/13 03:03:18;;;;;;;29.10;12.70;;;-2.20;99.90;;;;;;4421620;32;20193;-69
2022/02/13 03:05:48;;;;;;;27.47;11.47;;;-2.30;99.90;;;;;;4425355;32;20147;-69
2022/02/13 03:08:16;;;;;;;26.33;11.37;;;-2.30;99.90;;;;;;4425834;32;20167;-69
2022/02/13 03:10:44;;;;;;;28.90;11.33;;;-2.30;99.90;;;;;;4427997;32;20150;-69
2022/02/13 03:13:14;;;;;;;29.30;11.97;;;-2.30;99.90;;;;;;4425141;32;20190;-69
2022/02/13 03:15:41;;;;;;;26.53;11.00;;;-2.30;99.90;;;;;;4425176;32;20171;-69
2022/02/13 03:18:09;;;;;;;26.23;10.63;;;-2.30;99.90;;;;;;4424643;32;20525;-69
2022/02/13 03:20:36;;;;;;;25.33;11.70;;;-2.30;99.90;;;;;;4427315;32;20186;-69
2022/02/13 03:23:03;;;;;;;23.80;10.13;;;-2.40;99.90;;;;;;4424549;32;20221;-69
2022/02/13 03:25:30;;;;;;;24.37;10.63;;;-2.40;99.90;;;;;;4424781;32;20238;-68
2022/02/13 03:27:56;;;;;;;28.50;10.43;;;-2.40;99.90;;;;;;4426420;32;20178;-69
2022/02/13 03:30:23;;;;;;;24.90;10.90;;;-2.40;99.90;;;;;;4425935;32;20457;-68
2022/02/13 03:32:50;;;;;;;25.40;10.80;;;-2.40;99.90;;;;;;4424962;32;20265;-68
2022/02/13 03:35:17;;;;;;;27.47;9.97;;;-2.40;99.90;;;;;;4424516;32;20269;-68
2022/02/13 03:37:44;;;;;;;27.23;10.23;;;-2.40;99.90;;;;;;4424826;32;20262;-69
2022/02/13 03:40:12;;;;;;;22.97;10.27;;;-2.40;99.90;;;;;;4426107;32;20179;-69
2022/02/13 03:42:39;;;;;;;26.83;10.40;;;-2.50;99.90;;;;;;4426133;32;20181;-68
2022/02/13 03:45:07;;;;;;;24.47;9.63;;;-2.50;99.90;;;;;;4425643;32;20158;-68
2022/02/13 03:47:34;;;;;;;26.30;9.63;;;-2.50;99.90;;;;;;4426006;32;20170;-68
2022/02/13 03:50:01;;;;;;;20.73;9.60;;;-2.50;99.90;;;;;;4426883;32;20177;-69
2022/02/13 03:52:28;;;;;;;20.97;9.20;;;-2.40;99.90;;;;;;4425673;32;20445;-69
2022/02/13 03:54:55;;;;;;;21.93;9.23;;;-2.40;99.90;;;;;;4427469;32;20202;-69
2022/02/13 03:57:22;;;;;;;27.73;10.17;;;-2.40;99.90;;;;;;4425699;32;20538;-69
2022/02/13 03:59:49;;;;;;;21.37;9.63;;;-2.40;99.90;;;;;;4424077;32;20194;-68
2022/02/13 04:02:16;;;;;;;22.10;9.23;;;-2.40;99.90;;;;;;4426033;32;20150;-69
2022/02/13 04:04:43;;;;;;;20.83;9.20;;;-2.40;99.90;;;;;;4426508;32;20191;-68
2022/02/13 04:07:09;;;;;;;22.73;10.00;;;-2.40;99.90;;;;;;4427414;32;20185;-68
2022/02/13 04:09:36;;;;;;;19.50;8.53;;;-2.40;99.90;;;;;;4426723;32;20165;-68
2022/02/13 04:12:04;;;;;;;22.37;8.93;;;-2.40;99.90;;;;;;4424702;32;20198;-68
2022/02/13 04:14:31;;;;;;;21.13;9.13;;;-2.40;99.90;;;;;;4425628;32;20195;-68
2022/02/13 04:16:57;;;;;;;21.47;8.70;;;-2.50;99.90;;;;;;4425467;32;20248;-68
2022/02/13 04:19:24;;;;;;;19.60;9.33;;;-2.50;99.90;;;;;;4425893;32;20175;-68
2022/02/13 04:21:51;;;;;;;19.53;8.93;;;-2.40;99.90;;;;;;4424711;32;20178;-68
2022/02/13 04:24:18;;;;;;;19.03;8.70;;;-2.40;99.90;;;;;;4425563;32;20178;-68
2022/02/13 04:26:45;;;;;;;20.70;9.40;;;-2.50;99.90;;;;;;4425406;32;20537;-68
2022/02/13 04:29:12;;;;;;;18.43;9.40;;;-2.50;99.90;;;;;;4425383;32;20199;-68
2022/02/13 04:31:39;;;;;;;22.53;9.10;;;-2.40;99.90;;;;;;4423514;32;20643;-68
2022/02/13 04:34:07;;;;;;;20.47;8.43;;;-2.40;99.90;;;;;;4423774;32;20197;-68
2022/02/13 04:36:34;;;;;;;18.70;9.03;;;-2.40;99.90;;;;;;4426680;32;20139;-68
2022/02/13 04:39:03;;;;;;;18.23;8.50;;;-2.40;99.90;;;;;;4425324;32;20158;-68
2022/02/13 04:41:30;;;;;;;20.33;9.27;;;-2.40;99.90;;;;;;4425478;32;20592;-68
2022/02/13 04:43:57;;;;;;;17.73;8.17;;;-2.50;99.90;;;;;;4423923;32;20214;-68
2022/02/13 04:46:25;;;;;;;17.77;8.07;;;-2.40;99.90;;;;;;4426961;32;20549;-68
2022/02/13 04:48:51;;;;;;;23.00;8.77;;;-2.40;99.90;;;;;;4423408;32;20186;-68
2022/02/13 04:51:19;;;;;;;18.27;8.73;;;-2.40;99.90;;;;;;4423528;32;20247;-68
2022/02/13 04:53:45;;;;;;;18.80;8.50;;;-2.40;99.90;;;;;;4424650;32;20170;-68
2022/02/13 04:56:12;;;;;;;17.10;8.13;;;-2.40;99.90;;;;;;4425094;32;20199;-69
2022/02/13 04:58:39;;;;;;;22.00;8.40;;;-2.40;99.90;;;;;;4423491;32;20250;-68
2022/02/13 05:01:06;;;;;;;16.27;7.73;;;-2.50;99.90;;;;;;4423630;32;20190;-69
2022/02/13 05:03:33;;;;;;;18.13;7.67;;;-2.50;99.90;;;;;;4425278;32;20170;-68
2022/02/13 05:06:00;;;;;;;15.93;7.77;;;-2.40;99.90;;;;;;4424874;32;20216;-68
2022/02/13 05:08:27;;;;;;;18.27;8.03;;;-2.40;99.90;;;;;;4423696;32;20209;-68
2022/02/13 05:10:54;;;;;;;19.33;8.13;;;-2.40;99.90;;;;;;4426313;32;20238;-68
2022/02/13 05:13:21;;;;;;;16.23;7.40;;;-2.40;99.90;;;;;;4423660;32;20207;-68
2022/02/13 05:15:48;;;;;;;19.73;7.90;;;-2.40;99.90;;;;;;4410690;32;20232;-68
2022/02/13 05:18:15;;;;;;;19.30;8.03;;;-2.40;99.90;;;;;;4423269;32;20193;-68
2022/02/13 05:20:42;;;;;;;15.83;8.00;;;-2.40;99.90;;;;;;4425313;32;20259;-68
2022/02/13 05:23:09;;;;;;;16.63;7.70;;;-2.40;99.90;;;;;;4424401;32;20250;-68
2022/02/13 05:25:35;;;;;;;17.57;8.00;;;-2.40;99.90;;;;;;4428314;32;20145;-68
2022/02/13 05:28:03;;;;;;;16.27;7.73;;;-2.40;99.90;;;;;;4432371;32;20194;-68
2022/02/13 05:30:29;;;;;;;14.73;7.27;;;-2.30;99.90;;;;;;4422245;32;20220;-68
2022/02/13 05:32:57;;;;;;;18.73;8.30;;;-2.40;99.90;;;;;;4433934;32;20192;-68
2022/02/13 05:35:25;;;;;;;19.20;8.17;;;-2.30;99.90;;;;;;4423187;32;20171;-68
2022/02/13 05:37:52;;;;;;;21.70;8.03;;;-2.30;99.90;;;;;;4422659;32;20230;-68
2022/02/13 05:40:19;;;;;;;20.00;8.37;;;-2.30;99.90;;;;;;4423167;32;20251;-70
2022/02/13 05:42:46;;;;;;;18.83;8.10;;;-2.30;99.90;;;;;;4422598;32;20184;-70
2022/02/13 05:45:13;;;;;;;17.87;7.80;;;-2.30;99.90;;;;;;4424652;32;20543;-70
2022/02/13 05:47:41;;;;;;;17.40;8.00;;;-2.30;99.90;;;;;;4422574;32;20170;-70
2022/02/13 05:50:09;;;;;;;16.20;7.70;;;-2.30;99.90;;;;;;4423931;32;20242;-70
2022/02/13 05:52:36;;;;;;;17.77;7.60;;;-2.30;99.90;;;;;;4424655;32;20205;-70
2022/02/13 05:55:04;;;;;;;19.33;7.57;;;-2.30;99.90;;;;;;4424332;32;20206;-70
2022/02/13 05:57:31;;;;;;;17.97;7.97;;;-2.20;99.90;;;;;;4424528;32;20201;-70
2022/02/13 05:59:58;;;;;;;16.80;7.27;;;-2.20;99.90;;;;;;4423997;32;20242;-70
2022/02/13 06:02:25;;;;;;;20.80;8.20;;;-2.20;99.90;;;;;;4422743;32;20431;-69
2022/02/13 06:04:53;;;;;;;19.00;7.90;;;-2.20;99.90;;;;;;4410408;32;20551;-71
2022/02/13 06:07:20;;;;;;;21.53;8.03;;;-2.20;99.90;;;;;;4423017;32;20179;-69
2022/02/13 06:09:47;;;;;;;17.70;8.10;;;-2.20;99.90;;;;;;4423401;32;20174;-70
2022/02/13 06:12:14;;;;;;;16.70;7.80;;;-2.20;99.90;;;;;;4422609;32;20198;-68
2022/02/13 06:14:41;;;;;;;19.63;8.13;;;-2.10;99.90;;;;;;4423484;32;20190;-68
2022/02/13 06:17:08;;;;;;;18.93;8.23;;;-2.20;99.90;;;;;;4424310;32;20451;-68
2022/02/13 06:19:35;;;;;;;19.17;8.43;;;-2.10;99.90;;;;;;4423352;32;20229;-68
2022/02/13 06:22:02;;;;;;;16.63;7.97;;;-2.10;99.90;;;;;;4422249;32;20242;-68
2022/02/13 06:24:29;;;;;;;19.07;8.73;;;-2.10;99.90;;;;;;4423999;32;20241;-69
2022/02/13 06:26:55;;;;;;;18.60;8.23;;;-2.10;99.90;;;;;;4425385;32;20139;-69
2022/02/13 06:29:22;;;;;;;17.23;8.00;;;-2.10;99.90;;;;;;4423236;32;20440;-68
2022/02/13 06:31:49;;;;;;;16.37;7.73;;;-2.00;99.90;;;;;;4423527;32;20217;-68
2022/02/13 06:34:16;;;;;;;18.40;7.73;;;-2.00;99.90;;;;;;4424010;32;20163;-68
2022/02/13 06:36:43;;;;;;;21.03;8.47;;;-1.90;99.90;;;;;;4422726;32;20178;-68
2022/02/13 06:39:10;;;;;;;18.63;8.20;;;-1.90;99.90;;;;;;4423865;32;20481;-68
2022/02/13 06:41:37;;;;;;;18.80;8.13;;;-1.90;99.90;;;;;;4426813;32;20524;-68
2022/02/13 06:44:04;;;;;;;17.20;8.27;;;-1.90;99.90;;;;;;4426905;32;20437;-68
2022/02/13 06:46:31;;;;;;;19.17;8.43;;;-1.80;99.90;;;;;;4426826;32;20205;-68
2022/02/13 06:48:59;;;;;;;15.60;7.87;;;-1.80;99.90;;;;;;4424859;32;20635;-68
2022/02/13 06:51:25;;;;;;;22.47;8.50;;;-1.80;99.90;;;;;;4427566;32;20179;-68
2022/02/13 06:53:52;;;;;;;17.30;7.90;;;-1.80;99.90;;;;;;4425003;32;20179;-68
2022/02/13 06:56:19;;;;;;;16.10;7.67;;;-1.70;99.90;;;;;;4426665;32;20204;-68
2022/02/13 06:58:46;;;;;;;21.33;8.60;;;-1.70;99.90;;;;;;4426623;32;20197;-68
2022/02/13 07:01:14;;;;;;;17.50;7.83;;;-1.60;99.90;;;;;;4425031;32;20213;-68
2022/02/13 07:03:41;;;;;;;17.63;7.77;;;-1.60;99.90;;;;;;4426386;32;20231;-68
2022/02/13 07:06:08;;;;;;;15.57;7.83;;;-1.60;99.90;;;;;;4427881;32;20556;-68
2022/02/13 07:08:35;;;;;;;19.17;8.40;;;-1.50;99.90;;;;;;4426108;32;20213;-68
2022/02/13 07:11:04;;;;;;;20.10;8.20;;;-1.50;99.90;;;;;;4425149;32;20205;-68
2022/02/13 07:13:31;;;;;;;17.27;7.93;;;-1.40;99.90;;;;;;4424859;32;20187;-68
2022/02/13 07:15:58;;;;;;;20.13;8.47;;;-1.30;99.90;;;;;;4424618;32;20182;-68
2022/02/13 07:18:25;;;;;;;17.57;8.03;;;-1.30;99.90;;;;;;4425010;32;20179;-68
2022/02/13 07:20:52;;;;;;;18.23;8.50;;;-1.20;99.90;;;;;;4425028;32;20662;-69
2022/02/13 07:23:19;;;;;;;17.20;8.40;;;-1.10;99.90;;;;;;4424544;32;20187;-69
2022/02/13 07:25:46;;;;;;;17.90;8.33;;;-1.10;99.90;;;;;;4425890;32;20198;-69
2022/02/13 07:30:58;;;;;;;14.30;7.77;;;-1.00;99.90;;;;;;4425022;32;20233;-69
2022/02/13 07:33:25;;;;;;;19.70;8.67;;;-0.90;99.90;;;;;;4426999;32;20189;-70
2022/02/13 07:35:52;;;;;;;17.93;8.10;;;-0.80;99.90;;;;;;4425647;32;20189;-70
2022/02/13 07:38:19;;;;;;;16.57;8.20;;;-0.80;99.90;;;;;;4424870;32;20462;-70
2022/02/13 07:40:46;;;;;;;20.07;8.40;;;-0.70;99.90;;;;;;4426241;32;20179;-70
2022/02/13 07:43:15;;;;;;;17.80;8.30;;;-0.60;99.90;;;;;;4425283;32;20364;-70
2022/02/13 07:45:42;;;;;;;17.83;8.13;;;-0.50;99.90;;;;;;4426374;32;20179;-70
2022/02/13 07:48:11;;;;;;;19.13;8.47;;;-0.50;99.90;;;;;;4426260;32;20431;-69
2022/02/13 07:50:38;;;;;;;19.73;8.73;;;-0.40;99.90;;;;;;4424658;32;20225;-69
2022/02/13 07:53:05;;;;;;;19.57;8.93;;;-0.30;99.90;;;;;;4425040;32;20163;-70
2022/02/13 07:55:33;;;;;;;21.77;8.60;;;-0.20;99.90;;;;;;4426772;32;20461;-70
2022/02/13 07:58:00;;;;;;;20.13;8.77;;;-0.20;99.90;;;;;;4424131;32;20465;-70
2022/02/13 08:00:27;;;;;;;16.40;8.30;;;-0.10;99.90;;;;;;4425979;32;20163;-70
2022/02/13 08:02:54;;;;;;;20.77;8.47;;;0.00;99.90;;;;;;4424282;32;20190;-70
2022/02/13 08:05:21;;;;;;;18.53;8.33;;;0.00;99.90;;;;;;4424914;32;20171;-70
2022/02/13 08:07:49;;;;;;;16.00;8.50;;;0.10;99.90;;;;;;4424226;32;20233;-70
2022/02/13 08:10:16;;;;;;;18.37;8.47;;;0.20;99.90;;;;;;4424585;32;20171;-70
2022/02/13 08:12:44;;;;;;;20.17;8.53;;;0.30;99.90;;;;;;4423823;32;20197;-70
2022/02/13 08:15:12;;;;;;;19.13;8.30;;;0.40;99.90;;;;;;4424314;32;20442;-70
2022/02/13 08:17:39;;;;;;;18.53;8.07;;;0.80;99.90;;;;;;4424119;32;20175;-70
2022/02/13 08:20:09;;;;;;;18.20;8.33;;;1.40;99.90;;;;;;4425581;32;20182;-70
2022/02/13 08:22:37;;;;;;;18.63;8.10;;;1.80;99.90;;;;;;4425261;32;20187;-70
2022/02/13 08:25:08;;;;;;;18.97;8.10;;;2.10;99.90;;;;;;4425345;32;20181;-69
2022/02/13 08:27:35;;;;;;;17.53;7.90;;;2.40;99.90;;;;;;4424441;32;20159;-69
2022/02/13 08:30:03;;;;;;;16.33;8.50;;;2.60;99.90;;;;;;4423618;32;20252;-70
2022/02/13 08:32:30;;;;;;;16.33;8.03;;;3.00;99.90;;;;;;4423942;32;20193;-69
2022/02/13 08:34:57;;;;;;;18.80;8.57;;;3.30;99.90;;;;;;4425192;32;20178;-69
2022/02/13 08:37:24;;;;;;;16.80;8.00;;;3.70;99.90;;;;;;4423709;32;20217;-69
2022/02/13 08:39:51;;;;;;;17.73;8.37;;;3.90;99.90;;;;;;4424568;32;20171;-69
2022/02/13 08:42:17;;;;;;;18.93;8.60;;;4.00;99.90;;;;;;4425563;32;20183;-69
2022/02/13 08:44:44;;;;;;;16.77;7.83;;;4.40;99.90;;;;;;4423612;32;20221;-70
2022/02/13 08:47:12;;;;;;;17.43;7.87;;;4.60;99.90;;;;;;4426040;32;20185;-71
2022/02/13 08:49:41;;;;;;;18.13;8.30;;;4.60;99.90;;;;;;4423545;32;20207;-71
2022/02/13 08:52:11;;;;;;;15.80;7.93;;;4.80;99.90;;;;;;4425099;32;20440;-71
2022/02/13 08:54:38;;;;;;;16.50;7.30;;;5.00;99.90;;;;;;4429525;32;20601;-71
2022/02/13 08:57:05;;;;;;;17.60;7.93;;;5.20;99.90;;;;;;4425088;32;20166;-70
2022/02/13 08:59:32;;;;;;;13.40;7.67;;;5.30;99.90;;;;;;4424570;32;20209;-70
2022/02/13 09:01:59;;;;;;;17.60;7.83;;;5.30;99.90;;;;;;4423753;32;20256;-70
2022/02/13 09:04:26;;;;;;;16.30;7.53;;;5.60;99.90;;;;;;4423505;32;20180;-70
2022/02/13 09:06:54;;;;;;;17.57;7.80;;;5.90;99.90;;;;;;4422852;32;20513;-70
2022/02/13 09:09:23;;;;;;;15.20;7.17;;;6.20;99.90;;;;;;4423546;32;20198;-70
2022/02/13 09:11:50;;;;;;;13.47;7.07;;;6.30;99.30;;;;;;4423549;32;20240;-70
2022/02/13 09:14:17;;;;;;;12.23;7.30;;;6.60;98.70;;;;;;4423634;32;20182;-70
2022/02/13 09:16:44;;;;;;;16.37;7.50;;;6.80;96.80;;;;;;4424329;32;20171;-70
2022/02/13 09:19:11;;;;;;;16.37;7.60;;;6.90;95.20;;;;;;4424021;32;20170;-70
2022/02/13 09:21:38;;;;;;;14.07;7.60;;;7.20;94.60;;;;;;4424511;32;20194;-70
2022/02/13 09:24:06;;;;;;;17.17;7.73;;;7.40;92.10;;;;;;4424840;32;20195;-70
2022/02/13 09:26:35;;;;;;;16.77;7.83;;;7.60;91.40;;;;;;4423424;32;20182;-70
2022/02/13 09:29:02;;;;;;;14.30;7.50;;;7.70;91.20;;;;;;4424189;32;20201;-70
2022/02/13 09:31:29;;;;;;;15.93;7.87;;;8.00;90.20;;;;;;4422306;32;20209;-70
2022/02/13 09:33:56;;;;;;;16.53;8.13;;;8.10;84.90;;;;;;4423416;32;20205;-70
2022/02/13 09:36:23;;;;;;;16.47;8.07;;;8.00;85.30;;;;;;4422931;32;20180;-70
2022/02/13 09:38:50;;;;;;;14.77;7.47;;;8.40;88.20;;;;;;4411099;32;20222;-70
2022/02/13 09:41:18;;;;;;;18.93;7.90;;;8.70;84.70;;;;;;4422815;32;20183;-70
2022/02/13 09:43:45;;;;;;;16.10;7.80;;;8.80;81.30;;;;;;4427865;32;20187;-70
2022/02/13 09:46:14;;;;;;;15.47;7.80;;;8.90;77.80;;;;;;4432618;32;20157;-70
2022/02/13 09:48:42;;;;;;;15.17;7.77;;;9.00;77.40;;;;;;4439101;32;20221;-70
2022/02/13 09:51:10;;;;;;;18.43;7.87;;;9.00;74.60;;;;;;4440039;32;20241;-70
2022/02/13 09:53:38;;;;;;;14.97;7.40;;;9.00;75.20;;;;;;4438163;32;20193;-71
2022/02/13 09:56:06;;;;;;;14.43;7.57;;;9.00;74.00;;;;;;4438255;32;20467;-70
2022/02/13 09:58:36;;;;;;;13.97;7.03;;;9.10;74.00;;;;;;4438328;32;20418;-70
2022/02/13 10:01:10;;;;;;;14.73;6.90;;;9.40;72.80;;;;;;4439562;32;20186;-71
2022/02/13 10:03:43;;;;;;;14.27;6.80;;;9.60;72.10;;;;;;4438354;32;20189;-71
2022/02/13 10:06:13;;;;;;;12.13;6.80;;;9.80;72.00;;;;;;4438525;32;20224;-71
2022/02/13 10:08:49;;;;;;;13.77;6.67;;;9.80;68.80;;;;;;4438501;32;20181;-70
2022/02/13 10:11:25;;;;;;;15.83;7.10;;;9.80;67.90;;;;;;4437847;32;20173;-69
2022/02/13 10:13:57;;;;;;;13.90;6.73;;;9.60;67.80;;;;;;4438840;32;20389;-69
2022/02/13 10:16:33;;;;;;;15.63;6.77;;;9.30;67.10;;;;;;4441506;32;20196;-69
2022/02/13 10:19:08;;;;;;;11.97;6.33;;;9.30;67.20;;;;;;4443021;32;20206;-69
2022/02/13 10:21:55;;;;;;;15.20;6.53;;;9.50;69.80;;;;;;4444244;32;20161;-69
2022/02/13 10:24:26;;;;;;;12.17;6.37;;;9.20;67.30;;;;;;4443540;32;20186;-69
2022/02/13 10:26:56;;;;;;;13.53;6.57;;;9.10;68.60;;;;;;4429800;32;20182;-70
2022/02/13 10:29:27;;;;;;;12.80;6.47;;;9.30;69.70;;;;;;4429173;32;20182;-69
2022/02/13 10:32:20;;;;;;;15.87;6.47;;;9.60;69.80;;;;;;4426960;32;20211;-69
2022/02/13 10:35:08;;;;;;;13.00;6.47;;;9.80;66.60;;;;;;4431754;32;20192;-69
2022/02/13 10:37:42;;;;;;;11.83;6.10;;;8.90;66.80;;;;;;4433269;32;20193;-69
2022/02/13 10:40:12;;;;;;;11.27;6.20;;;8.60;70.10;;;;;;4441506;32;20208;-70
2022/02/13 10:42:39;;;;;;;11.47;6.10;;;8.70;70.70;;;;;;4439355;32;20366;-69
2022/02/13 10:45:23;;;;;;;12.77;6.13;;;8.70;69.60;;;;;;4428121;32;20189;-69
2022/02/13 10:47:53;;;;;;;11.03;6.40;;;8.60;70.30;;;;;;4427221;32;20186;-69
2022/02/13 10:50:21;;;;;;;13.30;6.60;;;8.50;71.50;;;;;;4442994;32;20555;-69
2022/02/13 10:52:50;;;;;;;14.50;6.43;;;8.80;73.80;;;;;;4437221;32;20225;-70
2022/02/13 10:55:17;;;;;;;12.40;6.10;;;8.80;69.20;;;;;;4426423;32;20193;-69
2022/02/13 10:57:44;;;;;;;11.63;6.30;;;8.50;69.80;;;;;;4427802;32;20201;-69
2022/02/13 11:00:14;;;;;;;11.70;6.00;;;8.30;71.50;;;;;;4424652;32;20182;-69
2022/02/13 11:02:45;;;;;;;11.90;6.30;;;8.40;72.30;;;;;;4428273;32;20573;-69
2022/02/13 11:05:12;;;;;;;13.40;5.53;;;8.60;70.80;;;;;;4427643;32;20189;-69
2022/02/13 11:07:50;;;;;;;10.07;5.90;;;8.60;70.00;;;;;;4426823;32;20226;-69
2022/02/13 11:10:24;;;;;;;13.50;6.07;;;8.60;72.10;;;;;;4428990;32;20425;-69
2022/02/13 11:12:55;;;;;;;14.03;6.60;;;8.80;71.00;;;;;;4428012;32;20178;-69
2022/02/13 11:15:30;;;;;;;12.57;5.93;;;8.90;69.80;;;;;;4428354;32;20572;-69
2022/02/13 11:18:04;;;;;;;12.20;6.00;;;9.20;69.00;;;;;;4438689;32;20193;-68
2022/02/13 11:20:33;;;;;;;12.83;6.30;;;9.40;70.00;;;;;;4426901;32;20536;-67
2022/02/13 11:23:23;;;;;;;16.13;6.80;;;9.50;67.80;;;;;;4428008;32;20214;-67
2022/02/13 11:26:01;;;;;;;13.57;6.67;;;9.70;67.50;;;;;;4428010;32;20306;-67
2022/02/13 11:28:46;;;;;;;12.77;6.03;;;9.40;66.10;;;;;;4426317;32;20193;-69
2022/02/13 11:31:32;;;;;;;11.93;6.27;;;8.90;69.50;;;;;;4424679;32;20201;-69
2022/02/13 11:33:59;;;;;;;13.30;6.10;;;8.60;70.80;;;;;;4424857;32;20178;-69
2022/02/13 11:37:09;;;;;;;11.23;6.53;;;8.80;72.10;;;;;;4437880;32;20197;-69
2022/02/13 11:39:43;;;;;;;13.13;6.00;;;9.20;69.90;;;;;;4425438;32;20186;-69
2022/02/13 11:42:19;;;;;;;13.07;6.60;;;9.20;69.30;;;;;;4423310;32;20221;-69
2022/02/13 11:44:47;;;;;;;14.00;5.83;;;9.30;69.30;;;;;;4425040;32;20204;-69
2022/02/13 11:47:20;;;;;;;14.10;6.30;;;9.50;69.40;;;;;;4410498;32;20235;-69
2022/02/13 11:52:35;;;;;;;15.33;6.07;;;10.10;65.20;;;;;;4381175;32;20191;-69
2022/02/13 11:55:07;;;;;;;11.93;5.83;;;10.50;64.90;;;;;;4382323;32;20532;-69
2022/02/13 11:57:34;;;;;;;11.47;6.03;;;10.60;62.90;;;;;;4379657;32;20199;-69
2022/02/13 12:00:03;;;;;;;10.47;5.47;;;10.60;63.70;;;;;;4381918;32;20230;-70
2022/02/13 12:02:30;;;;;;;12.37;6.10;;;10.80;62.60;;;;;;4381107;32;20203;-69
2022/02/13 12:05:05;;;;;;;14.10;6.13;;;11.00;60.30;;;;;;4380145;32;20180;-69
2022/02/13 12:07:38;;;;;;;13.37;6.17;;;11.20;59.50;;;;;;4381089;32;20269;-69
2022/02/13 12:10:08;;;;;;;10.83;5.60;;;11.60;59.10;;;;;;4393598;32;20170;-69
2022/02/13 12:12:35;;;;;;;9.60;5.73;;;11.60;57.00;;;;;;4392440;32;20164;-69
2022/02/13 12:15:03;;;;;;;12.50;5.87;;;11.40;58.00;;;;;;4401651;32;20528;-69
2022/02/13 12:17:30;;;;;;;10.00;5.47;;;11.70;58.00;;;;;;4425088;32;20241;-69
2022/02/13 12:20:05;;;;;;;9.87;5.47;;;11.90;56.80;;;;;;4424088;32;20178;-69
2022/02/13 12:22:36;;;;;;;13.17;5.70;;;11.90;56.30;;;;;;4425570;32;20210;-69
2022/02/13 12:25:05;;;;;;;11.60;5.80;;;12.00;56.70;;;;;;4424201;32;20210;-69
2022/02/13 12:27:33;;;;;;;11.57;5.90;;;12.60;56.90;;;;;;4424489;32;20171;-70
2022/02/13 12:30:05;;;;;;;11.00;5.53;;;12.80;54.30;;;;;;4425540;32;20237;-69
2022/02/13 12:32:38;;;;;;;11.80;5.90;;;13.00;54.50;;;;;;4425048;32;20197;-69
2022/02/13 12:35:11;;;;;;;10.17;5.47;;;12.90;53.20;;;;;;4424594;32;20171;-69
2022/02/13 12:37:41;;;;;;;11.60;5.83;;;12.20;53.80;;;;;;4423910;32;20197;-69
2022/02/13 12:40:16;;;;;;;12.37;5.80;;;11.80;55.20;;;;;;4423659;32;20178;-70
2022/02/13 12:42:54;;;;;;;10.33;5.53;;;11.90;56.60;;;;;;4424449;32;20204;-69
2022/02/13 12:45:27;;;;;;;13.83;5.67;;;12.40;55.80;;;;;;4423636;32;20221;-70
2022/02/13 12:47:58;;;;;;;11.80;5.93;;;12.60;54.20;;;;;;4424255;32;20181;-70